createdAt,value
2019-02-12T00:00:03.388Z,4.27
2019-02-12T00:01:03.364Z,4.20
2019-02-12T00:02:03.343Z,4.30
2019-02-12T00:03:03.317Z,4.29
2019-02-12T00:04:03.295Z,4.30
2019-02-12T00:05:03.270Z,4.24
2019-02-12T00:06:03.244Z,4.23
2019-02-12T00:07:03.223Z,4.30
2019-02-12T00:08:03.199Z,4.30
2019-02-12T00:09:03.178Z,4.27
2019-02-12T00:10:03.149Z,4.24
2019-02-12T00:11:03.125Z,4.18
2019-02-12T00:12:03.103Z,4.18
2019-02-12T00:13:03.085Z,4.29
2019-02-12T00:14:03.058Z,4.30
2019-02-12T00:15:03.039Z,4.22
2019-02-12T00:16:03.010Z,4.26
2019-02-12T00:17:02.990Z,4.32
2019-02-12T00:18:02.963Z,4.27
2019-02-12T00:19:02.938Z,4.33
2019-02-12T00:20:02.921Z,4.33
2019-02-12T00:21:08.933Z,4.29
2019-02-12T00:22:02.871Z,4.33
2019-02-12T00:23:02.849Z,4.36
2019-02-12T00:24:02.823Z,4.26
2019-02-12T00:25:02.803Z,4.34
2019-02-12T00:26:02.775Z,4.15
2019-02-12T00:27:02.749Z,4.29
2019-02-12T00:28:02.733Z,4.29
2019-02-12T00:29:02.705Z,4.24
2019-02-12T00:30:02.683Z,4.24
2019-02-12T00:31:02.654Z,4.26
2019-02-12T00:32:02.639Z,4.27
2019-02-12T00:33:02.617Z,4.33
2019-02-12T00:34:02.609Z,4.34
2019-02-12T00:35:02.564Z,4.32
2019-02-12T00:36:02.540Z,4.29
2019-02-12T00:37:02.523Z,4.32
2019-02-12T00:38:02.501Z,4.15
2019-02-12T00:39:02.473Z,4.27
2019-02-12T00:40:02.446Z,4.27
2019-02-12T00:41:02.423Z,4.30
2019-02-12T00:42:02.399Z,4.32
2019-02-12T00:43:02.435Z,4.16
2019-02-12T00:44:02.356Z,4.16
2019-02-12T00:45:02.332Z,4.15
2019-02-12T00:46:02.306Z,4.23
2019-02-12T00:47:02.284Z,4.20
2019-02-12T00:48:02.259Z,4.18
2019-02-12T00:49:02.230Z,4.14
2019-02-12T00:50:02.214Z,4.18
2019-02-12T00:51:02.183Z,4.14
2019-02-12T00:52:02.169Z,4.20
2019-02-12T00:53:02.144Z,4.22
2019-02-12T00:54:02.121Z,4.18
2019-02-12T00:55:02.113Z,4.32
2019-02-12T00:56:02.073Z,4.20
2019-02-12T00:57:02.047Z,4.12
2019-02-12T00:58:02.029Z,4.29
2019-02-12T00:59:02.001Z,4.14
2019-02-12T01:00:01.981Z,4.15
2019-02-12T01:01:01.955Z,4.22
2019-02-12T01:02:01.935Z,4.16
2019-02-12T01:03:01.907Z,4.16
2019-02-12T01:04:01.886Z,4.18
2019-02-12T01:05:01.863Z,4.26
2019-02-12T01:06:01.837Z,4.23
2019-02-12T01:07:01.813Z,4.27
2019-02-12T01:08:01.790Z,4.20
2019-02-12T01:09:01.768Z,4.14
2019-02-12T01:10:01.749Z,4.32
2019-02-12T01:11:01.719Z,4.23
2019-02-12T01:12:01.702Z,4.20
2019-02-12T01:13:01.674Z,4.22
2019-02-12T01:14:01.648Z,4.14
2019-02-12T01:15:01.628Z,4.06
2019-02-12T01:16:01.602Z,4.09
2019-02-12T01:17:01.590Z,4.15
2019-02-12T01:18:01.559Z,4.14
2019-02-12T01:19:01.530Z,4.11
2019-02-12T01:20:01.516Z,4.06
2019-02-12T01:21:01.487Z,4.12
2019-02-12T01:22:01.464Z,4.11
2019-02-12T01:23:01.440Z,4.12
2019-02-12T01:24:01.413Z,4.14
2019-02-12T01:25:01.392Z,4.14
2019-02-12T01:26:01.368Z,4.18
2019-02-12T01:27:01.347Z,4.22
2019-02-12T01:28:01.330Z,4.16
2019-02-12T01:29:01.305Z,4.11
2019-02-12T01:30:01.277Z,4.20
2019-02-12T01:31:01.256Z,4.14
2019-02-12T01:32:01.235Z,4.22
2019-02-12T01:33:01.212Z,4.18
2019-02-12T01:34:01.177Z,4.12
2019-02-12T01:35:01.164Z,4.16
2019-02-12T01:36:01.135Z,4.12
2019-02-12T01:37:01.112Z,4.18
2019-02-12T01:38:01.093Z,4.27
2019-02-12T01:39:01.065Z,4.24
2019-02-12T01:40:01.040Z,4.14
2019-02-12T01:41:01.024Z,4.20
2019-02-12T01:42:00.993Z,4.20
2019-02-12T01:43:00.970Z,4.18
2019-02-12T01:44:00.948Z,4.20
2019-02-12T01:45:00.924Z,4.16
2019-02-12T01:46:00.900Z,4.08
2019-02-12T01:47:00.878Z,4.11
2019-02-12T01:48:00.854Z,4.14
2019-02-12T01:49:00.838Z,4.18
2019-02-12T01:50:00.896Z,4.18
2019-02-12T01:51:00.782Z,4.14
2019-02-12T01:52:00.760Z,4.18
2019-02-12T01:53:00.748Z,4.30
2019-02-12T01:54:00.710Z,4.18
2019-02-12T01:55:00.688Z,4.23
2019-02-12T01:56:00.664Z,4.18
2019-02-12T01:57:00.640Z,4.23
2019-02-12T01:58:00.621Z,4.18
2019-02-12T01:59:00.597Z,4.30
2019-02-12T02:00:00.579Z,4.27
2019-02-12T02:01:00.550Z,4.24
2019-02-12T02:02:00.528Z,4.33
2019-02-12T02:03:00.505Z,4.27
2019-02-12T02:04:00.480Z,4.14
2019-02-12T02:05:00.458Z,4.18
2019-02-12T02:06:00.434Z,4.16
2019-02-12T02:07:00.406Z,4.16
2019-02-12T02:08:00.396Z,4.18
2019-02-12T02:09:00.359Z,4.22
2019-02-12T02:10:00.338Z,4.14
2019-02-12T02:11:00.312Z,4.14
2019-02-12T02:12:00.298Z,4.20
2019-02-12T02:13:00.269Z,4.22
2019-02-12T02:14:00.245Z,4.16
2019-02-12T02:15:00.265Z,4.16
2019-02-12T02:16:00.200Z,4.20
2019-02-12T02:17:00.174Z,4.15
2019-02-12T02:18:00.157Z,4.16
2019-02-12T02:19:00.127Z,4.12
2019-02-12T02:20:00.124Z,4.20
2019-02-12T02:21:00.081Z,4.11
2019-02-12T02:22:00.056Z,4.11
2019-02-12T02:23:00.033Z,4.05
2019-02-12T02:24:00.007Z,3.98
2019-02-12T02:24:59.994Z,4.06
2019-02-12T02:25:59.963Z,4.05
2019-02-12T02:26:59.940Z,4.08
2019-02-12T02:27:59.918Z,4.05
2019-02-12T02:28:59.893Z,4.05
2019-02-12T02:29:59.861Z,4.05
2019-02-12T02:30:59.847Z,4.05
2019-02-12T02:31:59.822Z,4.16
2019-02-12T02:32:59.799Z,4.18
2019-02-12T02:33:59.786Z,4.12
2019-02-12T02:34:59.754Z,4.14
2019-02-12T02:35:59.731Z,4.06
2019-02-12T02:36:59.705Z,4.04
2019-02-12T02:37:59.683Z,3.91
2019-02-12T02:38:59.662Z,3.94
2019-02-12T02:39:59.638Z,3.96
2019-02-12T02:40:59.619Z,3.98
2019-02-12T02:41:59.591Z,4.05
2019-02-12T02:42:59.567Z,4.05
2019-02-12T02:43:59.545Z,4.06
2019-02-12T02:44:59.515Z,4.05
2019-02-12T02:45:59.501Z,4.05
2019-02-12T02:46:59.476Z,3.98
2019-02-12T02:47:59.446Z,3.97
2019-02-12T02:48:59.423Z,3.90
2019-02-12T02:49:59.407Z,3.96
2019-02-12T02:50:59.378Z,3.96
2019-02-12T02:51:59.360Z,3.93
2019-02-12T02:52:59.331Z,4.00
2019-02-12T02:53:59.305Z,4.02
2019-02-12T02:54:59.281Z,4.00
2019-02-12T02:55:59.262Z,4.00
2019-02-12T02:56:59.238Z,4.02
2019-02-12T02:57:59.217Z,4.02
2019-02-12T02:58:59.195Z,4.11
2019-02-12T02:59:59.165Z,4.06
2019-02-12T03:00:59.147Z,4.14
2019-02-12T03:01:59.122Z,4.15
2019-02-12T03:02:59.096Z,4.09
2019-02-12T03:03:59.075Z,4.05
2019-02-12T03:04:59.055Z,4.05
2019-02-12T03:05:59.027Z,4.06
2019-02-12T03:06:59.001Z,4.05
2019-02-12T03:07:58.979Z,4.08
2019-02-12T03:08:58.956Z,4.08
2019-02-12T03:09:58.930Z,4.06
2019-02-12T03:10:58.910Z,4.04
2019-02-12T03:11:58.882Z,4.08
2019-02-12T03:12:58.865Z,4.11
2019-02-12T03:13:58.909Z,4.08
2019-02-12T03:14:58.816Z,4.12
2019-02-12T03:15:58.793Z,4.14
2019-02-12T03:16:58.779Z,4.08
2019-02-12T03:17:58.745Z,4.14
2019-02-12T03:18:58.721Z,4.11
2019-02-12T03:19:58.697Z,4.08
2019-02-12T03:20:58.673Z,4.09
2019-02-12T03:22:03.594Z,4.04
2019-02-12T03:22:58.623Z,4.02
2019-02-12T03:23:58.603Z,4.08
2019-02-12T03:24:58.582Z,4.15
2019-02-12T03:25:58.557Z,4.20
2019-02-12T03:26:58.536Z,4.20
2019-02-12T03:27:58.515Z,4.18
2019-02-12T03:28:58.490Z,4.18
2019-02-12T03:29:58.464Z,4.12
2019-02-12T03:30:58.443Z,4.24
2019-02-12T03:31:58.437Z,4.29
2019-02-12T03:32:58.397Z,4.24
2019-02-12T03:33:58.369Z,4.30
2019-02-12T03:34:58.341Z,4.34
2019-02-12T03:35:58.331Z,4.33
2019-02-12T03:36:58.301Z,4.30
2019-02-12T03:37:58.280Z,4.32
2019-02-12T03:38:58.252Z,4.30
2019-02-12T03:39:58.235Z,4.29
2019-02-12T03:40:58.206Z,4.27
2019-02-12T03:41:58.186Z,4.30
2019-02-12T03:42:58.154Z,4.18
2019-02-12T03:43:58.136Z,4.16
2019-02-12T03:44:58.116Z,4.18
2019-02-12T03:45:58.092Z,4.08
2019-02-12T03:46:58.067Z,4.14
2019-02-12T03:47:58.041Z,4.09
2019-02-12T03:48:58.020Z,4.08
2019-02-12T03:49:57.994Z,4.11
2019-02-12T03:50:57.969Z,4.08
2019-02-12T03:51:57.950Z,4.04
2019-02-12T03:52:57.928Z,4.11
2019-02-12T03:53:57.901Z,4.05
2019-02-12T03:54:57.878Z,4.06
2019-02-12T03:55:57.857Z,4.06
2019-02-12T03:56:57.835Z,3.97
2019-02-12T03:57:57.810Z,4.00
2019-02-12T03:58:57.787Z,4.00
2019-02-12T03:59:57.760Z,3.96
2019-02-12T04:00:57.740Z,4.02
2019-02-12T04:01:57.714Z,3.87
2019-02-12T04:02:57.693Z,3.87
2019-02-12T04:03:57.675Z,3.87
2019-02-12T04:04:57.641Z,3.78
2019-02-12T04:05:57.624Z,3.80
2019-02-12T04:06:57.602Z,3.79
2019-02-12T04:07:57.570Z,3.76
2019-02-12T04:08:57.549Z,3.72
2019-02-12T04:09:57.526Z,3.65
2019-02-12T04:10:57.508Z,3.75
2019-02-12T04:11:57.483Z,3.68
2019-02-12T04:12:57.453Z,3.72
2019-02-12T04:13:57.435Z,3.72
2019-02-12T04:14:57.412Z,3.79
2019-02-12T04:15:57.387Z,3.80
2019-02-12T04:16:57.362Z,3.79
2019-02-12T04:17:57.365Z,3.66
2019-02-12T04:18:57.312Z,3.60
2019-02-12T04:19:57.295Z,3.66
2019-02-12T04:20:57.266Z,3.78
2019-02-12T04:21:57.261Z,3.70
2019-02-12T04:22:57.229Z,3.65
2019-02-12T04:23:57.198Z,3.68
2019-02-12T04:24:57.176Z,3.73
2019-02-12T04:25:57.152Z,3.68
2019-02-12T04:26:57.130Z,3.65
2019-02-12T04:27:57.110Z,3.69
2019-02-12T04:28:57.088Z,3.66
2019-02-12T04:29:57.056Z,3.66
2019-02-12T04:30:57.032Z,3.62
2019-02-12T04:31:57.010Z,3.55
2019-02-12T04:32:56.986Z,3.52
2019-02-12T04:33:56.967Z,3.61
2019-02-12T04:34:56.939Z,3.48
2019-02-12T04:35:56.916Z,3.43
2019-02-12T04:36:56.897Z,3.40
2019-02-12T04:37:56.880Z,3.43
2019-02-12T04:38:56.844Z,3.40
2019-02-12T04:39:56.824Z,3.42
2019-02-12T04:40:56.799Z,3.42
2019-02-12T04:41:56.774Z,3.39
2019-02-12T04:42:56.749Z,3.39
2019-02-12T04:43:56.729Z,3.33
2019-02-12T04:44:56.710Z,3.42
2019-02-12T04:45:56.683Z,3.40
2019-02-12T04:48:56.611Z,3.43
2019-02-12T04:50:56.567Z,3.39
2019-02-12T04:51:56.545Z,3.35
2019-02-12T04:52:56.524Z,3.33
2019-02-12T04:53:56.489Z,3.33
2019-02-12T04:54:56.471Z,3.33
2019-02-12T04:55:56.452Z,3.39
2019-02-12T04:56:56.422Z,3.39
2019-02-12T04:57:56.399Z,3.42
2019-02-12T04:58:56.370Z,3.39
2019-02-12T04:59:56.347Z,3.42
2019-02-12T05:00:56.330Z,3.50
2019-02-12T05:01:56.306Z,3.50
2019-02-12T05:02:56.275Z,3.47
2019-02-12T05:03:56.253Z,3.48
2019-02-12T05:04:56.232Z,3.42
2019-02-12T05:05:56.269Z,3.42
2019-02-12T05:06:56.186Z,3.39
2019-02-12T05:07:56.169Z,3.35
2019-02-12T05:08:57.932Z,3.35
2019-02-12T05:09:56.120Z,3.36
2019-02-12T05:10:56.111Z,3.42
2019-02-12T05:11:56.071Z,3.40
2019-02-12T05:12:56.048Z,3.42
2019-02-12T05:13:56.017Z,3.36
2019-02-12T05:14:55.995Z,3.21
2019-02-12T05:15:55.967Z,3.29
2019-02-12T05:16:55.958Z,3.23
2019-02-12T05:17:55.921Z,3.17
2019-02-12T05:18:55.998Z,3.11
2019-02-12T05:19:55.876Z,3.11
2019-02-12T05:20:55.853Z,3.14
2019-02-12T05:21:55.840Z,3.10
2019-02-12T05:22:55.805Z,3.05
2019-02-12T05:23:55.782Z,3.13
2019-02-12T05:24:55.753Z,3.20
2019-02-12T05:25:55.740Z,3.21
2019-02-12T05:26:55.707Z,3.06
2019-02-12T05:27:55.700Z,3.15
2019-02-12T05:28:55.663Z,3.28
2019-02-12T05:29:55.651Z,3.28
2019-02-12T05:30:55.613Z,3.32
2019-02-12T05:31:55.601Z,3.36
2019-02-12T05:32:55.571Z,3.36
2019-02-12T05:33:55.542Z,3.36
2019-02-12T05:34:55.979Z,3.29
2019-02-12T05:35:55.497Z,3.36
2019-02-12T05:36:55.475Z,3.32
2019-02-12T05:37:55.455Z,3.36
2019-02-12T05:38:55.426Z,3.33
2019-02-12T05:39:55.402Z,3.36
2019-02-12T05:40:55.377Z,3.35
2019-02-12T05:41:55.357Z,3.33
2019-02-12T05:42:55.391Z,3.36
2019-02-12T05:43:55.321Z,3.35
2019-02-12T05:44:55.283Z,3.39
2019-02-12T05:45:55.260Z,3.36
2019-02-12T05:46:55.232Z,3.40
2019-02-12T05:47:55.210Z,3.40
2019-02-12T05:48:55.189Z,3.40
2019-02-12T05:49:55.165Z,3.42
2019-02-12T05:50:55.139Z,3.33
2019-02-12T05:51:55.117Z,3.39
2019-02-12T05:52:55.318Z,3.36
2019-02-12T05:53:55.080Z,3.42
2019-02-12T05:54:55.046Z,3.33
2019-02-12T05:55:55.033Z,3.40
2019-02-12T05:56:54.997Z,3.42
2019-02-12T05:57:54.975Z,3.40
2019-02-12T05:58:54.951Z,3.50
2019-02-12T05:59:54.929Z,3.55
2019-02-12T06:00:54.903Z,3.62
2019-02-12T06:01:54.876Z,3.61
2019-02-12T06:02:54.867Z,3.58
2019-02-12T06:03:54.833Z,3.76
2019-02-12T06:04:54.809Z,3.78
2019-02-12T06:05:54.783Z,3.80
2019-02-12T06:06:54.769Z,3.80
2019-02-12T06:07:54.735Z,3.88
2019-02-12T06:08:54.714Z,3.84
2019-02-12T06:09:54.700Z,3.87
2019-02-12T06:10:54.670Z,3.88
2019-02-12T06:11:54.645Z,3.91
2019-02-12T06:12:54.617Z,3.80
2019-02-12T06:13:54.597Z,3.79
2019-02-12T06:14:54.570Z,3.87
2019-02-12T06:15:54.550Z,3.94
2019-02-12T06:16:54.526Z,3.87
2019-02-12T06:17:54.499Z,3.91
2019-02-12T06:18:54.480Z,3.93
2019-02-12T06:19:54.463Z,3.98
2019-02-12T06:20:54.435Z,3.90
2019-02-12T06:21:54.407Z,3.98
2019-02-12T06:23:03.061Z,4.00
2019-02-12T06:23:54.359Z,3.97
2019-02-12T06:24:54.335Z,4.02
2019-02-12T06:25:54.317Z,3.97
2019-02-12T06:26:54.288Z,3.96
2019-02-12T06:27:54.266Z,3.94
2019-02-12T06:28:54.238Z,4.00
2019-02-12T06:29:54.220Z,3.98
2019-02-12T06:30:54.192Z,4.05
2019-02-12T06:31:54.170Z,4.04
2019-02-12T06:32:54.156Z,4.15
2019-02-12T06:33:54.132Z,4.14
2019-02-12T06:34:54.101Z,4.12
2019-02-12T06:35:54.082Z,4.08
2019-02-12T06:36:54.060Z,4.12
2019-02-12T06:37:54.030Z,4.15
2019-02-12T06:38:54.006Z,4.16
2019-02-12T06:39:53.982Z,4.15
2019-02-12T06:40:53.961Z,4.14
2019-02-12T06:41:53.938Z,4.16
2019-02-12T06:42:53.919Z,4.29
2019-02-12T06:43:53.894Z,4.20
2019-02-12T06:44:53.868Z,4.18
2019-02-12T06:45:53.845Z,4.23
2019-02-12T06:46:53.822Z,4.15
2019-02-12T06:47:53.803Z,4.23
2019-02-12T06:48:53.772Z,4.12
2019-02-12T06:49:53.763Z,4.20
2019-02-12T06:50:53.724Z,4.23
2019-02-12T06:51:53.703Z,4.18
2019-02-12T06:52:53.678Z,4.12
2019-02-12T06:53:53.654Z,4.22
2019-02-12T06:54:53.627Z,4.22
2019-02-12T06:55:53.606Z,4.29
2019-02-12T06:56:53.583Z,4.34
2019-02-12T06:57:53.561Z,4.30
2019-02-12T06:58:53.536Z,4.27
2019-02-12T06:59:53.514Z,4.32
2019-02-12T07:00:53.492Z,4.32
2019-02-12T07:01:53.472Z,4.34
2019-02-12T07:02:53.441Z,4.32
2019-02-12T07:03:53.420Z,4.40
2019-02-12T07:04:53.395Z,4.30
2019-02-12T07:05:53.378Z,4.34
2019-02-12T07:06:53.354Z,4.41
2019-02-12T07:07:53.324Z,4.30
2019-02-12T07:08:53.309Z,4.40
2019-02-12T07:09:53.284Z,4.40
2019-02-12T07:10:53.261Z,4.40
2019-02-12T07:11:53.242Z,4.44
2019-02-12T07:12:53.233Z,4.45
2019-02-12T07:13:53.187Z,4.41
2019-02-12T07:14:53.166Z,4.48
2019-02-12T07:15:53.139Z,4.48
2019-02-12T07:16:53.118Z,4.48
2019-02-12T07:17:53.094Z,4.47
2019-02-12T07:18:54.535Z,4.48
2019-02-12T07:19:53.043Z,4.50
2019-02-12T07:20:53.029Z,4.54
2019-02-12T07:21:53.003Z,4.66
2019-02-12T07:22:52.976Z,4.60
2019-02-12T07:23:52.953Z,4.62
2019-02-12T07:24:52.931Z,4.63
2019-02-12T07:25:55.113Z,4.65
2019-02-12T07:26:52.882Z,4.67
2019-02-12T07:27:52.858Z,4.67
2019-02-12T07:28:52.847Z,4.65
2019-02-12T07:29:52.811Z,4.66
2019-02-12T07:30:52.791Z,4.66
2019-02-12T07:31:52.769Z,4.65
2019-02-12T07:32:52.741Z,4.63
2019-02-12T07:33:52.733Z,4.77
2019-02-12T07:34:52.700Z,4.80
2019-02-12T07:35:52.685Z,4.69
2019-02-12T07:36:52.659Z,4.77
2019-02-12T07:37:52.628Z,4.78
2019-02-12T07:38:52.613Z,4.80
2019-02-12T07:39:52.583Z,4.91
2019-02-12T07:40:52.557Z,4.92
2019-02-12T07:41:52.544Z,4.96
2019-02-12T07:42:52.519Z,4.94
2019-02-12T07:43:52.491Z,4.91
2019-02-12T07:44:52.467Z,5.00
2019-02-12T07:45:52.446Z,5.02
2019-02-12T07:46:52.421Z,5.00
2019-02-12T07:47:52.398Z,4.94
2019-02-12T07:48:52.378Z,4.96
2019-02-12T07:49:52.357Z,5.03
2019-02-12T07:50:52.327Z,5.00
2019-02-12T07:51:52.306Z,5.03
2019-02-12T07:52:52.280Z,5.06
2019-02-12T07:53:52.262Z,5.02
2019-02-12T07:54:52.235Z,4.94
2019-02-12T07:55:52.216Z,5.03
2019-02-12T07:56:52.191Z,5.06
2019-02-12T07:57:52.163Z,5.09
2019-02-12T07:58:52.152Z,5.13
2019-02-12T07:59:52.124Z,5.20
2019-02-12T08:00:52.104Z,5.24
2019-02-12T08:01:52.075Z,5.25
2019-02-12T08:02:52.063Z,5.18
2019-02-12T08:03:52.044Z,5.18
2019-02-12T08:04:52.002Z,5.27
2019-02-12T08:05:51.986Z,5.15
2019-02-12T08:06:51.966Z,5.27
2019-02-12T08:07:51.936Z,5.25
2019-02-12T08:08:51.921Z,5.15
2019-02-12T08:09:51.894Z,5.13
2019-02-12T08:10:51.869Z,5.35
2019-02-12T08:11:51.853Z,5.21
2019-02-12T08:12:51.831Z,5.24
2019-02-12T08:13:51.799Z,5.27
2019-02-12T08:14:51.777Z,5.21
2019-02-12T08:15:51.754Z,5.30
2019-02-12T08:16:51.731Z,5.33
2019-02-12T08:17:51.718Z,5.38
2019-02-12T08:18:51.682Z,5.54
2019-02-12T08:19:51.665Z,5.81
2019-02-12T08:20:51.639Z,5.90
2019-02-12T08:21:51.620Z,6.08
2019-02-12T08:22:51.594Z,6.14
2019-02-12T08:23:51.571Z,6.38
2019-02-12T08:24:51.558Z,6.43
2019-02-12T08:25:51.529Z,6.66
2019-02-12T08:26:51.506Z,6.76
2019-02-12T08:27:51.481Z,6.51
2019-02-12T08:28:52.158Z,6.54
2019-02-12T08:29:51.437Z,6.49
2019-02-12T08:30:51.427Z,6.64
2019-02-12T08:31:51.402Z,6.76
2019-02-12T08:32:51.403Z,6.88
2019-02-12T08:33:51.348Z,6.92
2019-02-12T08:34:51.323Z,6.91
2019-02-12T08:35:57.124Z,6.73
2019-02-12T08:36:51.313Z,6.52
2019-02-12T08:37:51.260Z,6.38
2019-02-12T08:38:51.235Z,6.17
2019-02-12T08:39:51.219Z,6.03
2019-02-12T08:40:51.195Z,6.06
2019-02-12T08:41:51.171Z,6.01
2019-02-12T08:42:51.149Z,6.01
2019-02-12T08:43:51.125Z,6.11
2019-02-12T08:44:51.102Z,6.15
2019-02-12T08:45:51.081Z,6.22
2019-02-12T08:46:53.102Z,6.28
2019-02-12T08:47:51.040Z,6.19
2019-02-12T08:48:51.016Z,6.22
2019-02-12T08:49:50.992Z,6.30
2019-02-12T08:50:50.969Z,7.10
2019-02-12T08:51:50.947Z,8.25
2019-02-12T08:52:50.928Z,9.17
2019-02-12T08:53:50.959Z,9.38
2019-02-12T08:54:50.883Z,9.50
2019-02-12T08:55:50.865Z,9.35
2019-02-12T08:56:50.944Z,9.04
2019-02-12T08:57:50.822Z,8.63
2019-02-12T08:58:50.800Z,8.28
2019-02-12T08:59:50.800Z,8.20
2019-02-12T09:00:50.752Z,8.41
2019-02-12T09:01:52.158Z,8.41
2019-02-12T09:02:50.705Z,8.50
2019-02-12T09:03:50.693Z,8.20
2019-02-12T09:04:50.668Z,8.05
2019-02-12T09:05:50.656Z,7.75
2019-02-12T09:06:50.629Z,7.53
2019-02-12T09:07:50.608Z,7.55
2019-02-12T09:08:50.585Z,7.52
2019-02-12T09:09:50.558Z,7.48
2019-02-12T09:10:50.538Z,7.69
2019-02-12T09:11:50.515Z,7.90
2019-02-12T09:12:50.505Z,8.00
2019-02-12T09:13:50.492Z,7.74
2019-02-12T09:14:50.449Z,7.74
2019-02-12T09:15:50.430Z,7.50
2019-02-12T09:16:50.419Z,7.39
2019-02-12T09:17:50.395Z,7.37
2019-02-12T09:18:50.370Z,7.16
2019-02-12T09:19:50.350Z,6.73
2019-02-12T09:20:50.331Z,6.61
2019-02-12T09:21:50.307Z,6.73
2019-02-12T09:22:50.281Z,6.92
2019-02-12T09:23:59.412Z,6.85
2019-02-12T09:24:50.240Z,6.71
2019-02-12T09:25:50.222Z,6.58
2019-02-12T09:26:50.199Z,6.59
2019-02-12T09:27:50.177Z,6.62
2019-02-12T09:28:50.162Z,6.79
2019-02-12T09:29:50.137Z,6.91
2019-02-12T09:30:50.120Z,7.69
2019-02-12T09:31:50.093Z,7.68
2019-02-12T09:32:50.069Z,7.57
2019-02-12T09:33:50.059Z,7.53
2019-02-12T09:34:50.028Z,7.72
2019-02-12T09:35:50.008Z,8.66
2019-02-12T09:36:49.988Z,8.40
2019-02-12T09:37:49.971Z,7.92
2019-02-12T09:38:49.946Z,7.71
2019-02-12T09:39:49.921Z,7.43
2019-02-12T09:40:49.905Z,8.10
2019-02-12T09:41:49.887Z,9.36
2019-02-12T09:42:49.869Z,10.09
2019-02-12T09:43:49.839Z,10.18
2019-02-12T09:44:49.821Z,9.76
2019-02-12T09:45:49.807Z,9.35
2019-02-12T09:46:49.791Z,8.74
2019-02-12T09:47:49.763Z,8.33
2019-02-12T09:48:49.741Z,8.89
2019-02-12T09:49:49.723Z,9.14
2019-02-12T09:50:49.697Z,9.40
2019-02-12T09:51:49.690Z,9.13
2019-02-12T09:52:49.661Z,8.48
2019-02-12T09:53:49.641Z,8.15
2019-02-12T09:54:49.631Z,7.98
2019-02-12T09:55:49.602Z,7.85
2019-02-12T09:56:49.582Z,7.74
2019-02-12T09:57:49.563Z,7.68
2019-02-12T09:58:49.548Z,7.77
2019-02-12T09:59:49.522Z,7.77
2019-02-12T10:00:49.516Z,7.68
2019-02-12T10:01:49.485Z,7.53
2019-02-12T10:02:49.483Z,7.60
2019-02-12T10:03:49.440Z,7.75
2019-02-12T10:04:49.433Z,8.56
2019-02-12T10:05:49.408Z,9.13
2019-02-12T10:06:49.384Z,9.01
2019-02-12T10:07:49.391Z,8.66
2019-02-12T10:08:49.345Z,8.50
2019-02-12T10:09:49.333Z,8.37
2019-02-12T10:10:49.311Z,8.26
2019-02-12T10:11:49.291Z,9.43
2019-02-12T10:12:49.755Z,9.99
2019-02-12T10:13:49.243Z,9.99
2019-02-12T10:14:49.229Z,9.64
2019-02-12T10:15:49.210Z,9.46
2019-02-12T10:16:49.184Z,9.05
2019-02-12T10:17:49.177Z,8.74
2019-02-12T10:18:49.148Z,8.44
2019-02-12T10:19:49.128Z,8.23
2019-02-12T10:20:49.112Z,8.12
2019-02-12T10:21:49.094Z,9.35
2019-02-12T10:22:49.070Z,10.73
2019-02-12T10:23:49.052Z,11.67
2019-02-12T10:24:49.038Z,12.09
2019-02-12T10:25:49.039Z,11.90
2019-02-12T10:26:49.009Z,12.75
2019-02-12T10:27:48.972Z,13.14
2019-02-12T10:28:49.255Z,12.78
2019-02-12T10:29:48.936Z,12.02
2019-02-12T10:30:48.920Z,11.22
2019-02-12T10:31:48.898Z,11.11
2019-02-12T10:32:48.879Z,11.94
2019-02-12T10:33:48.874Z,12.82
2019-02-12T10:34:48.839Z,13.00
2019-02-12T10:35:48.825Z,12.79
2019-02-12T10:36:48.801Z,13.48
2019-02-12T10:37:48.791Z,14.03
2019-02-12T10:38:48.765Z,14.43
2019-02-12T10:39:48.756Z,15.09
2019-02-12T10:40:48.732Z,14.65
2019-02-12T10:41:48.712Z,13.52
2019-02-12T10:42:48.702Z,12.68
2019-02-12T10:43:48.672Z,12.27
2019-02-12T10:44:48.673Z,11.80
2019-02-12T10:45:48.642Z,11.82
2019-02-12T10:46:48.623Z,12.07
2019-02-12T10:47:48.601Z,11.88
2019-02-12T10:48:48.585Z,11.64
2019-02-12T10:49:48.588Z,11.40
2019-02-12T10:50:48.546Z,10.91
2019-02-12T10:51:48.530Z,10.45
2019-02-12T10:52:48.513Z,10.22
2019-02-12T10:53:48.502Z,10.08
2019-02-12T10:54:48.477Z,9.97
2019-02-12T10:55:48.459Z,9.79
2019-02-12T10:56:48.442Z,9.57
2019-02-12T10:57:48.430Z,9.20
2019-02-12T10:58:48.406Z,8.94
2019-02-12T10:59:48.388Z,8.81
2019-02-12T11:00:48.367Z,8.95
2019-02-12T11:01:48.350Z,9.14
2019-02-12T11:02:48.333Z,9.36
2019-02-12T11:03:48.314Z,9.69
2019-02-12T11:04:48.297Z,9.93
2019-02-12T11:05:48.274Z,10.23
2019-02-12T11:06:48.260Z,10.25
2019-02-12T11:07:48.240Z,10.53
2019-02-12T11:08:48.221Z,10.41
2019-02-12T11:09:48.204Z,10.17
2019-02-12T11:10:48.187Z,10.26
2019-02-12T11:11:48.167Z,10.33
2019-02-12T11:12:48.148Z,10.41
2019-02-12T11:13:48.134Z,10.25
2019-02-12T11:14:48.110Z,10.36
2019-02-12T11:15:48.092Z,10.64
2019-02-12T11:16:48.075Z,10.91
2019-02-12T11:17:48.063Z,11.25
2019-02-12T11:18:48.039Z,11.47
2019-02-12T11:19:48.019Z,11.75
2019-02-12T11:20:48.004Z,11.79
2019-02-12T11:21:47.981Z,11.91
2019-02-12T11:22:47.967Z,11.80
2019-02-12T11:23:47.949Z,11.94
2019-02-12T11:24:47.929Z,11.94
2019-02-12T11:25:47.912Z,11.88
2019-02-12T11:26:47.893Z,11.70
2019-02-12T11:27:47.878Z,11.35
2019-02-12T11:28:47.867Z,10.89
2019-02-12T11:29:47.840Z,10.56
2019-02-12T11:30:47.820Z,10.26
2019-02-12T11:31:47.805Z,10.18
2019-02-12T11:32:47.786Z,10.20
2019-02-12T11:33:47.768Z,10.45
2019-02-12T11:34:47.751Z,10.70
2019-02-12T11:35:47.735Z,10.89
2019-02-12T11:36:47.715Z,10.86
2019-02-12T11:37:47.699Z,10.81
2019-02-12T11:38:47.678Z,10.81
2019-02-12T11:39:47.659Z,10.92
2019-02-12T11:40:47.647Z,11.11
2019-02-12T11:41:47.628Z,11.25
2019-02-12T11:42:47.610Z,11.19
2019-02-12T11:43:47.593Z,11.10
2019-02-12T11:44:47.575Z,11.04
2019-02-12T11:45:47.557Z,10.99
2019-02-12T11:46:47.535Z,11.03
2019-02-12T11:47:47.530Z,11.25
2019-02-12T11:48:47.502Z,11.47
2019-02-12T11:49:47.490Z,11.55
2019-02-12T11:50:47.470Z,11.64
2019-02-12T11:51:47.450Z,11.69
2019-02-12T11:52:47.436Z,11.55
2019-02-12T11:53:47.419Z,11.21
2019-02-12T11:54:47.406Z,10.97
2019-02-12T11:55:47.379Z,11.03
2019-02-12T11:56:47.385Z,11.03
2019-02-12T11:57:47.347Z,11.25
2019-02-12T11:58:47.331Z,11.36
2019-02-12T11:59:47.314Z,11.57
2019-02-12T12:00:47.297Z,11.69
2019-02-12T12:01:47.275Z,11.76
2019-02-12T12:02:47.266Z,11.95
2019-02-12T12:03:47.245Z,12.10
2019-02-12T12:04:47.226Z,12.04
2019-02-12T12:05:47.211Z,12.09
2019-02-12T12:06:47.199Z,12.19
2019-02-12T12:07:47.178Z,12.16
2019-02-12T12:08:47.157Z,12.31
2019-02-12T12:09:47.141Z,12.27
2019-02-12T12:10:47.127Z,12.45
2019-02-12T12:11:47.106Z,12.46
2019-02-12T12:12:47.093Z,12.53
2019-02-12T12:13:47.077Z,12.42
2019-02-12T12:14:47.059Z,12.17
2019-02-12T12:15:47.043Z,11.91
2019-02-12T12:16:47.023Z,11.72
2019-02-12T12:17:47.005Z,11.65
2019-02-12T12:18:46.990Z,11.43
2019-02-12T12:19:47.009Z,10.97
2019-02-12T12:20:46.958Z,10.81
2019-02-12T12:21:46.937Z,10.53
2019-02-12T12:22:46.921Z,10.27
2019-02-12T12:23:46.910Z,10.12
2019-02-12T12:24:51.586Z,9.99
2019-02-12T12:25:46.875Z,10.01
2019-02-12T12:26:46.858Z,9.79
2019-02-12T12:27:46.837Z,9.66
2019-02-12T12:28:46.826Z,9.69
2019-02-12T12:29:46.814Z,9.61
2019-02-12T12:30:46.786Z,9.57
2019-02-12T12:31:46.765Z,9.66
2019-02-12T12:32:46.748Z,9.66
2019-02-12T12:33:46.733Z,9.66
2019-02-12T12:34:46.716Z,9.53
2019-02-12T12:35:46.699Z,9.48
2019-02-12T12:36:46.682Z,9.39
2019-02-12T12:37:46.665Z,9.31
2019-02-12T12:38:46.642Z,9.28
2019-02-12T12:39:46.630Z,9.11
2019-02-12T12:40:46.612Z,8.91
2019-02-12T12:41:46.593Z,8.81
2019-02-12T12:42:46.570Z,8.86
2019-02-12T12:43:46.560Z,8.63
2019-02-12T12:44:46.537Z,8.48
2019-02-12T12:45:46.516Z,8.29
2019-02-12T12:46:46.510Z,8.25
2019-02-12T12:47:46.499Z,8.22
2019-02-12T12:48:46.462Z,8.25
2019-02-12T12:49:46.443Z,8.22
2019-02-12T12:50:46.420Z,8.12
2019-02-12T12:51:46.453Z,8.10
2019-02-12T12:52:46.388Z,7.98
2019-02-12T12:53:46.363Z,7.83
2019-02-12T12:54:46.345Z,7.83
2019-02-12T12:55:46.328Z,7.80
2019-02-12T12:56:46.314Z,7.83
2019-02-12T12:57:46.296Z,7.82
2019-02-12T12:58:46.270Z,7.82
2019-02-12T12:59:46.263Z,7.82
2019-02-12T13:00:46.228Z,7.82
2019-02-12T13:01:46.206Z,7.85
2019-02-12T13:02:46.220Z,7.82
2019-02-12T13:03:46.172Z,7.77
2019-02-12T13:04:46.149Z,7.83
2019-02-12T13:05:46.131Z,8.08
2019-02-12T13:06:46.108Z,8.11
2019-02-12T13:07:46.092Z,8.29
2019-02-12T13:08:46.071Z,8.47
2019-02-12T13:09:46.052Z,8.59
2019-02-12T13:10:46.031Z,8.86
2019-02-12T13:11:46.008Z,8.94
2019-02-12T13:12:45.998Z,9.13
2019-02-12T13:13:45.971Z,9.24
2019-02-12T13:14:45.953Z,9.32
2019-02-12T13:15:45.936Z,9.35
2019-02-12T13:16:45.916Z,9.58